sensor_id;sensor_type;location;lat;lon;timestamp;P1;durP1;ratioP1;P2;durP2;ratioP2
7929;SDS011;4010;42.698;23.124;2023-08-07T00:01:53;2.33;;;2.23;;
7929;SDS011;4010;42.698;23.124;2023-08-07T00:04:19;2.93;;;2.67;;
7929;SDS011;4010;42.698;23.124;2023-08-07T00:06:46;3.07;;;2.87;;
7929;SDS011;4010;42.698;23.124;2023-08-07T00:09:14;2.70;;;2.50;;
7929;SDS011;4010;42.698;23.124;2023-08-07T00:11:41;2.90;;;2.70;;
7929;SDS011;4010;42.698;23.124;2023-08-07T00:14:07;3.07;;;2.87;;
7929;SDS011;4010;42.698;23.124;2023-08-07T00:16:34;5.77;;;2.87;;
7929;SDS011;4010;42.698;23.124;2023-08-07T00:19:01;3.40;;;2.70;;
7929;SDS011;4010;42.698;23.124;2023-08-07T00:21:28;3.57;;;3.27;;
7929;SDS011;4010;42.698;23.124;2023-08-07T00:23:55;3.97;;;2.80;;
7929;SDS011;4010;42.698;23.124;2023-08-07T00:26:23;3.53;;;3.23;;
7929;SDS011;4010;42.698;23.124;2023-08-07T00:28:50;2.87;;;2.67;;
7929;SDS011;4010;42.698;23.124;2023-08-07T00:31:17;3.40;;;3.10;;
7929;SDS011;4010;42.698;23.124;2023-08-07T00:33:43;4.33;;;2.90;;
7929;SDS011;4010;42.698;23.124;2023-08-07T00:36:10;3.30;;;3.10;;
7929;SDS011;4010;42.698;23.124;2023-08-07T00:38:37;3.50;;;3.23;;
7929;SDS011;4010;42.698;23.124;2023-08-07T00:41:04;3.93;;;3.53;;
7929;SDS011;4010;42.698;23.124;2023-08-07T00:43:34;3.80;;;3.50;;
7929;SDS011;4010;42.698;23.124;2023-08-07T00:46:00;3.97;;;3.67;;
7929;SDS011;4010;42.698;23.124;2023-08-07T00:48:28;4.20;;;3.23;;
7929;SDS011;4010;42.698;23.124;2023-08-07T00:50:55;3.87;;;3.57;;
7929;SDS011;4010;42.698;23.124;2023-08-07T00:53:22;3.63;;;3.33;;
7929;SDS011;4010;42.698;23.124;2023-08-07T00:55:49;4.13;;;3.83;;
7929;SDS011;4010;42.698;23.124;2023-08-07T00:58:16;4.30;;;3.90;;
7929;SDS011;4010;42.698;23.124;2023-08-07T01:00:45;4.23;;;3.93;;
7929;SDS011;4010;42.698;23.124;2023-08-07T01:03:12;4.30;;;4.00;;
7929;SDS011;4010;42.698;23.124;2023-08-07T01:05:41;4.67;;;4.27;;
7929;SDS011;4010;42.698;23.124;2023-08-07T01:08:07;4.87;;;4.47;;
7929;SDS011;4010;42.698;23.124;2023-08-07T01:10:36;4.40;;;4.00;;
7929;SDS011;4010;42.698;23.124;2023-08-07T01:13:14;4.10;;;3.80;;
7929;SDS011;4010;42.698;23.124;2023-08-07T01:15:46;4.90;;;4.40;;
7929;SDS011;4010;42.698;23.124;2023-08-07T01:18:18;4.07;;;3.77;;
7929;SDS011;4010;42.698;23.124;2023-08-07T01:20:45;5.77;;;4.80;;
7929;SDS011;4010;42.698;23.124;2023-08-07T01:23:13;5.20;;;4.70;;
7929;SDS011;4010;42.698;23.124;2023-08-07T01:25:39;4.33;;;4.03;;
7929;SDS011;4010;42.698;23.124;2023-08-07T01:28:09;4.30;;;4.00;;
7929;SDS011;4010;42.698;23.124;2023-08-07T01:30:44;4.30;;;4.00;;
7929;SDS011;4010;42.698;23.124;2023-08-07T01:33:15;4.60;;;4.20;;
7929;SDS011;4010;42.698;23.124;2023-08-07T01:35:49;4.70;;;4.30;;
7929;SDS011;4010;42.698;23.124;2023-08-07T01:38:20;4.47;;;4.17;;
7929;SDS011;4010;42.698;23.124;2023-08-07T01:40:50;4.73;;;4.33;;
7929;SDS011;4010;42.698;23.124;2023-08-07T01:43:17;4.60;;;4.30;;
7929;SDS011;4010;42.698;23.124;2023-08-07T01:45:45;4.77;;;4.37;;
7929;SDS011;4010;42.698;23.124;2023-08-07T01:48:11;4.97;;;4.57;;
7929;SDS011;4010;42.698;23.124;2023-08-07T01:50:38;4.57;;;4.17;;
7929;SDS011;4010;42.698;23.124;2023-08-07T01:53:05;4.93;;;4.50;;
7929;SDS011;4010;42.698;23.124;2023-08-07T01:55:33;4.70;;;4.30;;
7929;SDS011;4010;42.698;23.124;2023-08-07T01:58:00;6.20;;;4.30;;
7929;SDS011;4010;42.698;23.124;2023-08-07T02:00:27;4.63;;;4.23;;
7929;SDS011;4010;42.698;23.124;2023-08-07T02:02:54;4.67;;;4.27;;
7929;SDS011;4010;42.698;23.124;2023-08-07T02:05:20;4.20;;;3.90;;
7929;SDS011;4010;42.698;23.124;2023-08-07T02:07:47;5.13;;;4.57;;
7929;SDS011;4010;42.698;23.124;2023-08-07T02:10:14;4.90;;;4.50;;
7929;SDS011;4010;42.698;23.124;2023-08-07T02:12:42;5.10;;;4.70;;
7929;SDS011;4010;42.698;23.124;2023-08-07T02:15:09;4.80;;;4.33;;
7929;SDS011;4010;42.698;23.124;2023-08-07T02:17:35;5.07;;;4.27;;
7929;SDS011;4010;42.698;23.124;2023-08-07T02:20:04;5.27;;;4.80;;
7929;SDS011;4010;42.698;23.124;2023-08-07T02:22:31;5.37;;;4.97;;
7929;SDS011;4010;42.698;23.124;2023-08-07T02:24:58;5.43;;;4.93;;
7929;SDS011;4010;42.698;23.124;2023-08-07T02:27:25;6.50;;;5.00;;
7929;SDS011;4010;42.698;23.124;2023-08-07T02:29:53;5.73;;;5.23;;
7929;SDS011;4010;42.698;23.124;2023-08-07T02:32:20;4.87;;;4.43;;
7929;SDS011;4010;42.698;23.124;2023-08-07T02:34:46;5.97;;;4.43;;
7929;SDS011;4010;42.698;23.124;2023-08-07T02:37:13;4.73;;;4.33;;
7929;SDS011;4010;42.698;23.124;2023-08-07T02:39:40;4.87;;;4.47;;
7929;SDS011;4010;42.698;23.124;2023-08-07T02:42:08;5.50;;;5.00;;
7929;SDS011;4010;42.698;23.124;2023-08-07T02:44:35;6.23;;;5.73;;
7929;SDS011;4010;42.698;23.124;2023-08-07T02:47:03;5.73;;;4.60;;
7929;SDS011;4010;42.698;23.124;2023-08-07T02:49:30;5.30;;;4.70;;
7929;SDS011;4010;42.698;23.124;2023-08-07T02:51:57;5.23;;;4.73;;
7929;SDS011;4010;42.698;23.124;2023-08-07T02:54:23;5.90;;;5.30;;
7929;SDS011;4010;42.698;23.124;2023-08-07T02:56:50;6.63;;;6.13;;
7929;SDS011;4010;42.698;23.124;2023-08-07T02:59:17;6.03;;;5.53;;
7929;SDS011;4010;42.698;23.124;2023-08-07T03:01:44;6.03;;;5.43;;
7929;SDS011;4010;42.698;23.124;2023-08-07T03:04:12;5.87;;;5.30;;
7929;SDS011;4010;42.698;23.124;2023-08-07T03:06:38;6.00;;;5.60;;
7929;SDS011;4010;42.698;23.124;2023-08-07T03:09:05;6.10;;;5.60;;
7929;SDS011;4010;42.698;23.124;2023-08-07T03:11:31;5.63;;;5.13;;
7929;SDS011;4010;42.698;23.124;2023-08-07T03:13:58;6.80;;;6.10;;
7929;SDS011;4010;42.698;23.124;2023-08-07T03:16:25;6.63;;;6.07;;
7929;SDS011;4010;42.698;23.124;2023-08-07T03:18:51;6.70;;;6.17;;
7929;SDS011;4010;42.698;23.124;2023-08-07T03:21:19;7.63;;;6.93;;
7929;SDS011;4010;42.698;23.124;2023-08-07T03:23:46;8.40;;;7.70;;
7929;SDS011;4010;42.698;23.124;2023-08-07T03:26:13;7.57;;;6.90;;
7929;SDS011;4010;42.698;23.124;2023-08-07T03:28:39;7.97;;;7.17;;
7929;SDS011;4010;42.698;23.124;2023-08-07T03:31:06;8.57;;;7.67;;
7929;SDS011;4010;42.698;23.124;2023-08-07T03:33:33;7.70;;;7.10;;
7929;SDS011;4010;42.698;23.124;2023-08-07T03:35:59;8.00;;;7.30;;
7929;SDS011;4010;42.698;23.124;2023-08-07T03:38:28;7.90;;;7.20;;
7929;SDS011;4010;42.698;23.124;2023-08-07T03:40:54;8.43;;;7.73;;
7929;SDS011;4010;42.698;23.124;2023-08-07T03:43:21;8.53;;;7.73;;
7929;SDS011;4010;42.698;23.124;2023-08-07T03:45:47;9.33;;;7.17;;
7929;SDS011;4010;42.698;23.124;2023-08-07T03:48:19;8.53;;;7.73;;
7929;SDS011;4010;42.698;23.124;2023-08-07T03:50:46;7.90;;;7.20;;
7929;SDS011;4010;42.698;23.124;2023-08-07T03:53:13;7.53;;;6.93;;
7929;SDS011;4010;42.698;23.124;2023-08-07T03:55:41;7.33;;;6.63;;
7929;SDS011;4010;42.698;23.124;2023-08-07T03:58:07;7.90;;;7.17;;
7929;SDS011;4010;42.698;23.124;2023-08-07T04:00:34;7.10;;;6.50;;
7929;SDS011;4010;42.698;23.124;2023-08-07T04:03:01;7.97;;;7.17;;
7929;SDS011;4010;42.698;23.124;2023-08-07T04:05:27;7.47;;;6.70;;
7929;SDS011;4010;42.698;23.124;2023-08-07T04:07:54;6.87;;;6.23;;
7929;SDS011;4010;42.698;23.124;2023-08-07T04:10:21;7.20;;;6.17;;
7929;SDS011;4010;42.698;23.124;2023-08-07T04:12:49;6.50;;;5.90;;
7929;SDS011;4010;42.698;23.124;2023-08-07T04:15:15;6.13;;;5.63;;
7929;SDS011;4010;42.698;23.124;2023-08-07T04:17:42;6.03;;;5.63;;
7929;SDS011;4010;42.698;23.124;2023-08-07T04:20:09;6.90;;;6.20;;
7929;SDS011;4010;42.698;23.124;2023-08-07T04:22:36;6.10;;;5.60;;
7929;SDS011;4010;42.698;23.124;2023-08-07T04:25:03;7.63;;;6.93;;
7929;SDS011;4010;42.698;23.124;2023-08-07T04:27:30;6.90;;;6.13;;
7929;SDS011;4010;42.698;23.124;2023-08-07T04:29:58;4.60;;;4.20;;
7929;SDS011;4010;42.698;23.124;2023-08-07T04:32:24;3.70;;;3.37;;
7929;SDS011;4010;42.698;23.124;2023-08-07T04:34:51;3.23;;;3.03;;
7929;SDS011;4010;42.698;23.124;2023-08-07T04:37:17;4.70;;;2.83;;
7929;SDS011;4010;42.698;23.124;2023-08-07T04:39:44;2.43;;;2.33;;
7929;SDS011;4010;42.698;23.124;2023-08-07T04:42:11;3.00;;;2.60;;
7929;SDS011;4010;42.698;23.124;2023-08-07T04:44:38;2.60;;;2.40;;
7929;SDS011;4010;42.698;23.124;2023-08-07T04:47:06;2.50;;;2.40;;
7929;SDS011;4010;42.698;23.124;2023-08-07T04:49:33;3.93;;;2.53;;
7929;SDS011;4010;42.698;23.124;2023-08-07T04:51:59;2.87;;;2.67;;
7929;SDS011;4010;42.698;23.124;2023-08-07T04:54:26;2.67;;;2.23;;
7929;SDS011;4010;42.698;23.124;2023-08-07T04:56:53;3.00;;;2.40;;
7929;SDS011;4010;42.698;23.124;2023-08-07T04:59:19;2.53;;;2.43;;
7929;SDS011;4010;42.698;23.124;2023-08-07T05:01:46;2.47;;;2.27;;
7929;SDS011;4010;42.698;23.124;2023-08-07T05:04:14;2.43;;;2.27;;
7929;SDS011;4010;42.698;23.124;2023-08-07T05:06:41;2.57;;;2.37;;
7929;SDS011;4010;42.698;23.124;2023-08-07T05:09:07;2.27;;;2.17;;
7929;SDS011;4010;42.698;23.124;2023-08-07T05:11:34;1.97;;;1.87;;
7929;SDS011;4010;42.698;23.124;2023-08-07T05:14:01;3.43;;;2.20;;
7929;SDS011;4010;42.698;23.124;2023-08-07T05:16:28;2.37;;;2.27;;
7929;SDS011;4010;42.698;23.124;2023-08-07T05:18:55;2.23;;;2.13;;
7929;SDS011;4010;42.698;23.124;2023-08-07T05:21:23;2.40;;;2.30;;
7929;SDS011;4010;42.698;23.124;2023-08-07T05:23:49;2.20;;;2.10;;
7929;SDS011;4010;42.698;23.124;2023-08-07T05:26:18;2.33;;;2.23;;
7929;SDS011;4010;42.698;23.124;2023-08-07T05:28:45;2.47;;;2.27;;
7929;SDS011;4010;42.698;23.124;2023-08-07T05:31:11;2.27;;;2.17;;
7929;SDS011;4010;42.698;23.124;2023-08-07T05:33:38;2.30;;;2.20;;
7929;SDS011;4010;42.698;23.124;2023-08-07T05:36:05;2.40;;;2.20;;
7929;SDS011;4010;42.698;23.124;2023-08-07T05:38:34;3.80;;;2.40;;
7929;SDS011;4010;42.698;23.124;2023-08-07T05:41:00;2.10;;;2.00;;
7929;SDS011;4010;42.698;23.124;2023-08-07T05:43:27;2.53;;;2.10;;
7929;SDS011;4010;42.698;23.124;2023-08-07T05:45:54;1.80;;;1.70;;
7929;SDS011;4010;42.698;23.124;2023-08-07T05:48:20;3.13;;;2.27;;
7929;SDS011;4010;42.698;23.124;2023-08-07T05:50:47;2.50;;;1.97;;
7929;SDS011;4010;42.698;23.124;2023-08-07T05:53:14;2.00;;;1.90;;
7929;SDS011;4010;42.698;23.124;2023-08-07T05:55:42;2.00;;;1.90;;
7929;SDS011;4010;42.698;23.124;2023-08-07T05:58:08;2.20;;;2.10;;
7929;SDS011;4010;42.698;23.124;2023-08-07T06:00:35;1.93;;;1.83;;
7929;SDS011;4010;42.698;23.124;2023-08-07T06:03:02;3.47;;;2.00;;
7929;SDS011;4010;42.698;23.124;2023-08-07T06:05:32;1.90;;;1.80;;
7929;SDS011;4010;42.698;23.124;2023-08-07T06:07:59;2.33;;;1.70;;
7929;SDS011;4010;42.698;23.124;2023-08-07T06:10:26;1.73;;;1.63;;
7929;SDS011;4010;42.698;23.124;2023-08-07T06:12:54;1.60;;;1.50;;
7929;SDS011;4010;42.698;23.124;2023-08-07T06:15:21;1.70;;;1.60;;
7929;SDS011;4010;42.698;23.124;2023-08-07T06:17:48;1.80;;;1.70;;
7929;SDS011;4010;42.698;23.124;2023-08-07T06:20:16;1.80;;;1.70;;
7929;SDS011;4010;42.698;23.124;2023-08-07T06:22:43;1.50;;;1.40;;
7929;SDS011;4010;42.698;23.124;2023-08-07T06:25:10;1.67;;;1.53;;
7929;SDS011;4010;42.698;23.124;2023-08-07T06:27:37;1.60;;;1.50;;
7929;SDS011;4010;42.698;23.124;2023-08-07T06:30:06;1.70;;;1.60;;
7929;SDS011;4010;42.698;23.124;2023-08-07T06:32:33;1.40;;;1.30;;
7929;SDS011;4010;42.698;23.124;2023-08-07T06:35:02;1.43;;;1.40;;
7929;SDS011;4010;42.698;23.124;2023-08-07T06:37:29;1.73;;;1.37;;
7929;SDS011;4010;42.698;23.124;2023-08-07T06:39:56;1.50;;;1.40;;
7929;SDS011;4010;42.698;23.124;2023-08-07T06:42:22;1.80;;;1.53;;
7929;SDS011;4010;42.698;23.124;2023-08-07T06:44:49;1.40;;;1.30;;
7929;SDS011;4010;42.698;23.124;2023-08-07T06:47:17;1.30;;;1.30;;
7929;SDS011;4010;42.698;23.124;2023-08-07T06:49:44;1.10;;;1.10;;
7929;SDS011;4010;42.698;23.124;2023-08-07T06:52:10;1.30;;;0.90;;
7929;SDS011;4010;42.698;23.124;2023-08-07T06:54:37;1.00;;;1.00;;
7929;SDS011;4010;42.698;23.124;2023-08-07T06:57:04;1.30;;;1.20;;
7929;SDS011;4010;42.698;23.124;2023-08-07T06:59:31;1.10;;;1.00;;
7929;SDS011;4010;42.698;23.124;2023-08-07T07:01:58;1.10;;;1.10;;
7929;SDS011;4010;42.698;23.124;2023-08-07T07:04:26;1.03;;;1.03;;
7929;SDS011;4010;42.698;23.124;2023-08-07T07:06:53;1.20;;;1.20;;
7929;SDS011;4010;42.698;23.124;2023-08-07T07:09:19;1.70;;;1.13;;
7929;SDS011;4010;42.698;23.124;2023-08-07T07:11:46;1.27;;;1.17;;
7929;SDS011;4010;42.698;23.124;2023-08-07T07:14:13;2.20;;;1.30;;
7929;SDS011;4010;42.698;23.124;2023-08-07T07:16:39;1.60;;;1.50;;
7929;SDS011;4010;42.698;23.124;2023-08-07T07:19:07;1.37;;;1.27;;
7929;SDS011;4010;42.698;23.124;2023-08-07T07:21:36;1.47;;;1.00;;
7929;SDS011;4010;42.698;23.124;2023-08-07T07:24:02;1.40;;;1.30;;
7929;SDS011;4010;42.698;23.124;2023-08-07T07:26:29;1.40;;;1.30;;
7929;SDS011;4010;42.698;23.124;2023-08-07T07:28:56;1.30;;;1.20;;
7929;SDS011;4010;42.698;23.124;2023-08-07T07:31:23;1.27;;;1.20;;
7929;SDS011;4010;42.698;23.124;2023-08-07T07:33:49;1.37;;;1.27;;
7929;SDS011;4010;42.698;23.124;2023-08-07T07:36:16;1.53;;;1.43;;
7929;SDS011;4010;42.698;23.124;2023-08-07T07:38:46;1.30;;;1.20;;
7929;SDS011;4010;42.698;23.124;2023-08-07T07:41:13;1.23;;;1.10;;
7929;SDS011;4010;42.698;23.124;2023-08-07T07:43:40;1.50;;;1.20;;
7929;SDS011;4010;42.698;23.124;2023-08-07T07:46:06;1.23;;;1.23;;
7929;SDS011;4010;42.698;23.124;2023-08-07T07:48:33;3.47;;;1.70;;
7929;SDS011;4010;42.698;23.124;2023-08-07T07:51:01;1.53;;;1.43;;
7929;SDS011;4010;42.698;23.124;2023-08-07T07:53:29;1.40;;;1.30;;
7929;SDS011;4010;42.698;23.124;2023-08-07T07:55:58;2.13;;;1.33;;
7929;SDS011;4010;42.698;23.124;2023-08-07T07:58:24;3.27;;;1.70;;
7929;SDS011;4010;42.698;23.124;2023-08-07T08:00:51;1.50;;;1.40;;
7929;SDS011;4010;42.698;23.124;2023-08-07T08:03:19;1.50;;;1.40;;
7929;SDS011;4010;42.698;23.124;2023-08-07T08:05:48;1.50;;;1.40;;
7929;SDS011;4010;42.698;23.124;2023-08-07T08:08:15;1.90;;;1.70;;
7929;SDS011;4010;42.698;23.124;2023-08-07T08:10:42;1.67;;;1.57;;
7929;SDS011;4010;42.698;23.124;2023-08-07T08:13:10;1.77;;;1.50;;
7929;SDS011;4010;42.698;23.124;2023-08-07T08:15:37;1.50;;;1.33;;
7929;SDS011;4010;42.698;23.124;2023-08-07T08:18:04;1.50;;;1.40;;
7929;SDS011;4010;42.698;23.124;2023-08-07T08:20:30;1.80;;;1.60;;
7929;SDS011;4010;42.698;23.124;2023-08-07T08:22:58;1.40;;;1.30;;
7929;SDS011;4010;42.698;23.124;2023-08-07T08:25:25;1.83;;;1.73;;
7929;SDS011;4010;42.698;23.124;2023-08-07T08:27:52;2.73;;;1.60;;
7929;SDS011;4010;42.698;23.124;2023-08-07T08:30:20;1.60;;;1.50;;
7929;SDS011;4010;42.698;23.124;2023-08-07T08:32:47;1.80;;;1.70;;
7929;SDS011;4010;42.698;23.124;2023-08-07T08:35:14;8.23;;;1.63;;
7929;SDS011;4010;42.698;23.124;2023-08-07T08:37:41;1.77;;;1.67;;
7929;SDS011;4010;42.698;23.124;2023-08-07T08:40:08;3.63;;;1.67;;
7929;SDS011;4010;42.698;23.124;2023-08-07T08:42:37;1.53;;;1.43;;
7929;SDS011;4010;42.698;23.124;2023-08-07T08:45:06;1.70;;;1.50;;
7929;SDS011;4010;42.698;23.124;2023-08-07T08:47:37;1.30;;;1.30;;
7929;SDS011;4010;42.698;23.124;2023-08-07T08:50:06;1.43;;;1.40;;
7929;SDS011;4010;42.698;23.124;2023-08-07T08:52:35;1.40;;;1.30;;
7929;SDS011;4010;42.698;23.124;2023-08-07T08:55:04;1.77;;;1.30;;
7929;SDS011;4010;42.698;23.124;2023-08-07T08:57:31;1.87;;;1.60;;
7929;SDS011;4010;42.698;23.124;2023-08-07T09:00:05;1.57;;;1.47;;
7929;SDS011;4010;42.698;23.124;2023-08-07T09:02:43;1.70;;;1.60;;
7929;SDS011;4010;42.698;23.124;2023-08-07T09:05:11;2.33;;;1.53;;
7929;SDS011;4010;42.698;23.124;2023-08-07T09:07:38;3.57;;;1.40;;
7929;SDS011;4010;42.698;23.124;2023-08-07T09:10:05;1.57;;;1.40;;
7929;SDS011;4010;42.698;23.124;2023-08-07T09:12:32;1.60;;;1.50;;
7929;SDS011;4010;42.698;23.124;2023-08-07T09:15:01;2.40;;;1.60;;
7929;SDS011;4010;42.698;23.124;2023-08-07T09:17:29;1.50;;;1.40;;
7929;SDS011;4010;42.698;23.124;2023-08-07T09:20:01;3.27;;;1.60;;
7929;SDS011;4010;42.698;23.124;2023-08-07T09:22:29;1.57;;;1.47;;
7929;SDS011;4010;42.698;23.124;2023-08-07T09:24:55;1.60;;;1.50;;
7929;SDS011;4010;42.698;23.124;2023-08-07T09:27:25;1.80;;;1.70;;
7929;SDS011;4010;42.698;23.124;2023-08-07T09:29:51;1.67;;;1.57;;
7929;SDS011;4010;42.698;23.124;2023-08-07T09:32:21;1.60;;;1.50;;
7929;SDS011;4010;42.698;23.124;2023-08-07T09:34:49;1.70;;;1.60;;
7929;SDS011;4010;42.698;23.124;2023-08-07T09:37:18;1.83;;;1.60;;
7929;SDS011;4010;42.698;23.124;2023-08-07T09:39:45;2.37;;;1.40;;
7929;SDS011;4010;42.698;23.124;2023-08-07T09:42:13;1.70;;;1.60;;
7929;SDS011;4010;42.698;23.124;2023-08-07T09:44:40;1.70;;;1.60;;
7929;SDS011;4010;42.698;23.124;2023-08-07T09:47:11;1.70;;;1.60;;
7929;SDS011;4010;42.698;23.124;2023-08-07T09:49:39;1.80;;;1.70;;
7929;SDS011;4010;42.698;23.124;2023-08-07T09:52:06;2.97;;;1.80;;
7929;SDS011;4010;42.698;23.124;2023-08-07T09:54:35;2.07;;;1.80;;
7929;SDS011;4010;42.698;23.124;2023-08-07T09:57:02;1.80;;;1.70;;
7929;SDS011;4010;42.698;23.124;2023-08-07T09:59:31;2.07;;;1.60;;
7929;SDS011;4010;42.698;23.124;2023-08-07T10:01:58;1.60;;;1.50;;
7929;SDS011;4010;42.698;23.124;2023-08-07T10:04:26;1.60;;;1.50;;
7929;SDS011;4010;42.698;23.124;2023-08-07T10:06:53;2.90;;;1.80;;
7929;SDS011;4010;42.698;23.124;2023-08-07T10:09:20;1.50;;;1.40;;
7929;SDS011;4010;42.698;23.124;2023-08-07T10:11:48;1.70;;;1.60;;
7929;SDS011;4010;42.698;23.124;2023-08-07T10:14:15;1.63;;;1.53;;
7929;SDS011;4010;42.698;23.124;2023-08-07T10:16:43;2.60;;;1.70;;
7929;SDS011;4010;42.698;23.124;2023-08-07T10:19:11;1.40;;;1.30;;
7929;SDS011;4010;42.698;23.124;2023-08-07T10:21:38;1.47;;;1.37;;
7929;SDS011;4010;42.698;23.124;2023-08-07T10:24:06;1.70;;;1.60;;
7929;SDS011;4010;42.698;23.124;2023-08-07T10:26:35;2.17;;;1.40;;
7929;SDS011;4010;42.698;23.124;2023-08-07T10:29:08;1.70;;;1.60;;
7929;SDS011;4010;42.698;23.124;2023-08-07T10:31:37;1.40;;;1.30;;
7929;SDS011;4010;42.698;23.124;2023-08-07T10:34:07;1.50;;;1.40;;
7929;SDS011;4010;42.698;23.124;2023-08-07T10:36:33;1.70;;;1.60;;
7929;SDS011;4010;42.698;23.124;2023-08-07T10:39:07;1.37;;;1.30;;
7929;SDS011;4010;42.698;23.124;2023-08-07T10:41:38;1.50;;;1.40;;
7929;SDS011;4010;42.698;23.124;2023-08-07T10:44:17;2.63;;;1.60;;
7929;SDS011;4010;42.698;23.124;2023-08-07T10:46:48;1.80;;;1.70;;
7929;SDS011;4010;42.698;23.124;2023-08-07T10:49:32;1.80;;;1.70;;
7929;SDS011;4010;42.698;23.124;2023-08-07T10:52:04;1.80;;;1.70;;
7929;SDS011;4010;42.698;23.124;2023-08-07T10:54:37;1.70;;;1.60;;
7929;SDS011;4010;42.698;23.124;2023-08-07T10:57:09;1.60;;;1.50;;
7929;SDS011;4010;42.698;23.124;2023-08-07T10:59:39;1.60;;;1.50;;
7929;SDS011;4010;42.698;23.124;2023-08-07T11:02:11;1.80;;;1.60;;
7929;SDS011;4010;42.698;23.124;2023-08-07T11:04:49;1.60;;;1.50;;
7929;SDS011;4010;42.698;23.124;2023-08-07T11:07:22;2.20;;;1.70;;
7929;SDS011;4010;42.698;23.124;2023-08-07T11:09:49;2.87;;;1.70;;
7929;SDS011;4010;42.698;23.124;2023-08-07T11:12:16;1.70;;;1.60;;
7929;SDS011;4010;42.698;23.124;2023-08-07T11:14:44;1.60;;;1.50;;
7929;SDS011;4010;42.698;23.124;2023-08-07T11:17:11;1.83;;;1.73;;
7929;SDS011;4010;42.698;23.124;2023-08-07T11:19:38;1.80;;;1.70;;
7929;SDS011;4010;42.698;23.124;2023-08-07T11:22:05;1.70;;;1.60;;
7929;SDS011;4010;42.698;23.124;2023-08-07T11:24:32;5.87;;;1.70;;
7929;SDS011;4010;42.698;23.124;2023-08-07T11:26:59;1.90;;;1.80;;
7929;SDS011;4010;42.698;23.124;2023-08-07T11:29:26;1.60;;;1.50;;
7929;SDS011;4010;42.698;23.124;2023-08-07T11:31:54;2.37;;;1.60;;
7929;SDS011;4010;42.698;23.124;2023-08-07T11:34:21;2.70;;;1.60;;
7929;SDS011;4010;42.698;23.124;2023-08-07T11:36:48;1.90;;;1.80;;
7929;SDS011;4010;42.698;23.124;2023-08-07T11:39:14;1.70;;;1.60;;
7929;SDS011;4010;42.698;23.124;2023-08-07T11:41:42;2.37;;;1.70;;
7929;SDS011;4010;42.698;23.124;2023-08-07T11:44:09;3.80;;;1.77;;
7929;SDS011;4010;42.698;23.124;2023-08-07T11:46:36;1.70;;;1.60;;
7929;SDS011;4010;42.698;23.124;2023-08-07T11:49:04;1.80;;;1.70;;
7929;SDS011;4010;42.698;23.124;2023-08-07T11:51:31;2.80;;;1.80;;
7929;SDS011;4010;42.698;23.124;2023-08-07T11:53:59;1.80;;;1.70;;
7929;SDS011;4010;42.698;23.124;2023-08-07T11:56:25;1.87;;;1.77;;
7929;SDS011;4010;42.698;23.124;2023-08-07T11:58:52;2.97;;;2.00;;
7929;SDS011;4010;42.698;23.124;2023-08-07T12:01:19;2.40;;;1.70;;
7929;SDS011;4010;42.698;23.124;2023-08-07T12:03:51;3.10;;;1.50;;
7929;SDS011;4010;42.698;23.124;2023-08-07T12:06:21;1.70;;;1.60;;
7929;SDS011;4010;42.698;23.124;2023-08-07T12:08:48;1.90;;;1.80;;
7929;SDS011;4010;42.698;23.124;2023-08-07T12:11:16;1.70;;;1.60;;
7929;SDS011;4010;42.698;23.124;2023-08-07T12:13:43;1.70;;;1.60;;
7929;SDS011;4010;42.698;23.124;2023-08-07T12:16:11;1.60;;;1.50;;
7929;SDS011;4010;42.698;23.124;2023-08-07T12:18:42;1.80;;;1.70;;
7929;SDS011;4010;42.698;23.124;2023-08-07T12:21:10;2.30;;;1.73;;
7929;SDS011;4010;42.698;23.124;2023-08-07T12:23:38;1.80;;;1.70;;
7929;SDS011;4010;42.698;23.124;2023-08-07T12:26:05;1.83;;;1.73;;
7929;SDS011;4010;42.698;23.124;2023-08-07T12:28:32;2.30;;;1.80;;
7929;SDS011;4010;42.698;23.124;2023-08-07T12:30:59;1.90;;;1.67;;
7929;SDS011;4010;42.698;23.124;2023-08-07T12:33:25;1.83;;;1.73;;
7929;SDS011;4010;42.698;23.124;2023-08-07T12:35:52;1.90;;;1.80;;
7929;SDS011;4010;42.698;23.124;2023-08-07T12:38:19;1.70;;;1.60;;
7929;SDS011;4010;42.698;23.124;2023-08-07T12:40:47;1.83;;;1.73;;
7929;SDS011;4010;42.698;23.124;2023-08-07T12:43:14;2.07;;;1.90;;
7929;SDS011;4010;42.698;23.124;2023-08-07T12:45:41;2.07;;;1.83;;
7929;SDS011;4010;42.698;23.124;2023-08-07T12:48:08;2.53;;;1.70;;
7929;SDS011;4010;42.698;23.124;2023-08-07T12:50:35;1.60;;;1.50;;
7929;SDS011;4010;42.698;23.124;2023-08-07T12:53:02;1.70;;;1.60;;
7929;SDS011;4010;42.698;23.124;2023-08-07T12:55:29;1.80;;;1.70;;
7929;SDS011;4010;42.698;23.124;2023-08-07T12:57:57;8.83;;;1.90;;
7929;SDS011;4010;42.698;23.124;2023-08-07T13:00:23;1.87;;;1.77;;
7929;SDS011;4010;42.698;23.124;2023-08-07T13:02:51;1.90;;;1.40;;
7929;SDS011;4010;42.698;23.124;2023-08-07T13:05:20;2.03;;;1.40;;
7929;SDS011;4010;42.698;23.124;2023-08-07T13:07:48;2.63;;;1.60;;
7929;SDS011;4010;42.698;23.124;2023-08-07T13:10:15;1.80;;;1.70;;
7929;SDS011;4010;42.698;23.124;2023-08-07T13:12:43;2.27;;;1.63;;
7929;SDS011;4010;42.698;23.124;2023-08-07T13:15:14;3.17;;;1.77;;
7929;SDS011;4010;42.698;23.124;2023-08-07T13:17:42;2.23;;;1.67;;
7929;SDS011;4010;42.698;23.124;2023-08-07T13:20:10;1.87;;;1.73;;
7929;SDS011;4010;42.698;23.124;2023-08-07T13:22:38;2.73;;;1.63;;
7929;SDS011;4010;42.698;23.124;2023-08-07T13:25:05;1.80;;;1.70;;
7929;SDS011;4010;42.698;23.124;2023-08-07T13:27:33;3.27;;;1.70;;
7929;SDS011;4010;42.698;23.124;2023-08-07T13:30:00;1.70;;;1.60;;
7929;SDS011;4010;42.698;23.124;2023-08-07T13:32:28;3.17;;;1.73;;
7929;SDS011;4010;42.698;23.124;2023-08-07T13:34:57;1.77;;;1.67;;
7929;SDS011;4010;42.698;23.124;2023-08-07T13:37:23;1.97;;;1.87;;
7929;SDS011;4010;42.698;23.124;2023-08-07T13:39:50;1.73;;;1.63;;
7929;SDS011;4010;42.698;23.124;2023-08-07T13:42:18;2.93;;;1.70;;
7929;SDS011;4010;42.698;23.124;2023-08-07T13:44:44;1.77;;;1.67;;
7929;SDS011;4010;42.698;23.124;2023-08-07T13:47:11;1.80;;;1.70;;
7929;SDS011;4010;42.698;23.124;2023-08-07T13:49:40;2.43;;;1.80;;
7929;SDS011;4010;42.698;23.124;2023-08-07T13:52:07;2.60;;;2.10;;
7929;SDS011;4010;42.698;23.124;2023-08-07T13:54:33;2.83;;;2.00;;
7929;SDS011;4010;42.698;23.124;2023-08-07T13:57:00;2.63;;;2.00;;
7929;SDS011;4010;42.698;23.124;2023-08-07T13:59:27;3.27;;;2.20;;
7929;SDS011;4010;42.698;23.124;2023-08-07T14:01:53;2.97;;;2.00;;
7929;SDS011;4010;42.698;23.124;2023-08-07T14:04:21;4.13;;;2.20;;
7929;SDS011;4010;42.698;23.124;2023-08-07T14:06:50;3.93;;;2.10;;
7929;SDS011;4010;42.698;23.124;2023-08-07T14:09:16;5.33;;;2.20;;
7929;SDS011;4010;42.698;23.124;2023-08-07T14:11:46;4.33;;;2.57;;
7929;SDS011;4010;42.698;23.124;2023-08-07T14:14:13;4.40;;;2.03;;
7929;SDS011;4010;42.698;23.124;2023-08-07T14:16:40;2.30;;;2.10;;
7929;SDS011;4010;42.698;23.124;2023-08-07T14:19:06;3.90;;;1.97;;
7929;SDS011;4010;42.698;23.124;2023-08-07T14:21:33;2.63;;;2.10;;
7929;SDS011;4010;42.698;23.124;2023-08-07T14:24:01;9.53;;;2.50;;
7929;SDS011;4010;42.698;23.124;2023-08-07T14:26:27;11.93;;;2.53;;
7929;SDS011;4010;42.698;23.124;2023-08-07T14:28:54;3.30;;;2.20;;
7929;SDS011;4010;42.698;23.124;2023-08-07T14:31:21;3.83;;;2.13;;
7929;SDS011;4010;42.698;23.124;2023-08-07T14:33:48;2.50;;;1.77;;
7929;SDS011;4010;42.698;23.124;2023-08-07T14:36:14;10.83;;;3.17;;
7929;SDS011;4010;42.698;23.124;2023-08-07T14:38:41;3.00;;;1.93;;
7929;SDS011;4010;42.698;23.124;2023-08-07T14:41:09;4.03;;;2.00;;
7929;SDS011;4010;42.698;23.124;2023-08-07T14:43:36;14.70;;;2.57;;
7929;SDS011;4010;42.698;23.124;2023-08-07T14:46:03;9.67;;;2.03;;
7929;SDS011;4010;42.698;23.124;2023-08-07T14:48:29;1.70;;;1.60;;
7929;SDS011;4010;42.698;23.124;2023-08-07T14:50:56;1.90;;;1.73;;
7929;SDS011;4010;42.698;23.124;2023-08-07T14:53:23;2.00;;;1.90;;
7929;SDS011;4010;42.698;23.124;2023-08-07T14:55:50;2.00;;;1.80;;
7929;SDS011;4010;42.698;23.124;2023-08-07T14:58:19;1.80;;;1.70;;
7929;SDS011;4010;42.698;23.124;2023-08-07T15:00:45;2.00;;;1.80;;
7929;SDS011;4010;42.698;23.124;2023-08-07T15:03:12;2.33;;;2.13;;